Time;durP1;ratioP1;P1;durP2;ratioP2;P2;SDS_P1;SDS_P2;PMS_P1;PMS_P2;Temp;Humidity;BMP_temperature;BMP_pressure;BME280_temperature;BME280_humidity;BME280_pressure;Samples;Min_cycle;Max_cycle;Signal;HPM_P1;HPM_P2
2021/06/03 00:05:57;;;;;;;1999.90;999.90;;;;;;;17.03;58.28;101746.84;15684385;28;20040;-63
2021/06/03 00:13:31;;;;;;;1999.90;999.90;;;;;;;16.93;58.80;101750.13;15720782;28;20036;-63
2021/06/03 00:21:05;;;;;;;1999.90;999.90;;;;;;;16.71;58.70;101740.13;15732695;28;20132;-63
2021/06/03 00:28:36;;;;;;;1999.90;999.90;;;;;;;16.81;58.40;101738.88;15691031;28;20486;-64
2021/06/03 00:36:10;;;;;;;1999.90;999.90;;;;;;;16.65;59.05;101724.59;15702891;28;20051;-63
2021/06/03 00:43:42;;;;;;;1999.90;999.90;;;;;;;16.49;59.19;101738.53;15695760;28;20087;-60
2021/06/03 00:51:16;;;;;;;1999.90;999.90;;;;;;;16.28;59.73;101732.97;15685143;28;20060;-62
2021/06/03 00:58:48;;;;;;;1999.90;999.90;;;;;;;16.13;60.26;101731.63;15701958;23;20052;-64
2021/06/03 01:06:27;;;;;;;1999.90;999.90;;;;;;;15.92;60.61;101736.44;15679383;28;20396;-64
2021/06/03 01:14:03;;;;;;;1999.90;999.90;;;;;;;15.86;60.34;101744.31;15678731;28;20045;-64
2021/06/03 01:21:45;;;;;;;1999.90;999.90;;;;;;;15.74;60.61;101746.22;15678571;28;20040;-64
2021/06/03 01:29:19;;;;;;;1999.90;999.90;;;;;;;15.85;60.41;101755.91;15678868;28;20128;-64
2021/06/03 01:36:55;;;;;;;1999.90;999.90;;;;;;;15.81;60.54;101755.75;15678836;28;20045;-63
2021/06/03 01:44:33;;;;;;;1999.90;999.90;;;;;;;15.90;61.03;101769.75;15676188;28;20043;-64
2021/06/03 01:52:06;;;;;;;1999.90;999.90;;;;;;;15.85;61.10;101770.78;15675735;28;20126;-64
2021/06/03 01:59:41;;;;;;;1999.90;999.90;;;;;;;15.81;61.34;101763.38;15676794;28;20059;-63
2021/06/03 02:07:13;;;;;;;1999.90;999.90;;;;;;;15.31;61.63;101767.00;15676699;28;20037;-64
2021/06/03 02:14:50;;;;;;;1999.90;999.90;;;;;;;15.36;60.75;101764.00;15676306;28;20169;-63
2021/06/03 02:22:23;;;;;;;1999.90;999.90;;;;;;;15.31;60.78;101773.44;15674802;28;20049;-64
2021/06/03 02:29:58;;;;;;;1999.90;999.90;;;;;;;15.21;60.76;101781.44;15657950;28;20041;-63
2021/06/03 02:37:38;;;;;;;1999.90;999.90;;;;;;;15.09;61.77;101773.72;15660952;28;20120;-62
2021/06/03 02:45:16;;;;;;;1999.90;999.90;;;;;;;15.16;61.24;101768.41;15654545;28;20064;-63
2021/06/03 02:52:49;;;;;;;1999.90;999.90;;;;;;;15.10;61.47;101781.00;15654298;28;20570;-64
2021/06/03 03:00:27;;;;;;;1999.90;999.90;;;;;;;15.23;60.69;101796.00;15672136;28;20049;-63
2021/06/03 03:08:00;;;;;;;1999.90;999.90;;;;;;;15.20;61.93;101797.47;15654972;28;20354;-62
2021/06/03 03:15:33;;;;;;;1999.90;999.90;;;;;;;15.13;62.01;101794.41;15671653;28;20048;-64
2021/06/03 03:23:06;;;;;;;1999.90;999.90;;;;;;;15.09;61.77;101787.78;15671707;28;20037;-64
2021/06/03 03:30:42;;;;;;;1999.90;999.90;;;;;;;14.92;60.79;101787.88;15655480;28;20044;-64
2021/06/03 03:38:18;;;;;;;1999.90;999.90;;;;;;;14.99;60.73;101779.72;15666417;28;20414;-64
2021/06/03 03:45:54;;;;;;;1999.90;999.90;;;;;;;15.09;60.62;101792.59;15654631;28;20079;-64
2021/06/03 03:53:26;;;;;;;1999.90;999.90;;;;;;;15.35;59.07;101793.28;15656941;28;20287;-63
2021/06/03 04:01:00;;;;;;;1999.90;999.90;;;;;;;15.36;58.98;101786.50;15652744;28;20307;-64
2021/06/03 04:08:32;;;;;;;1999.90;999.90;;;;;;;15.58;59.70;101789.00;15680069;28;20445;-64
2021/06/03 04:16:06;;;;;;;1999.90;999.90;;;;;;;15.81;59.07;101803.59;15682080;28;20226;-64
2021/06/03 04:23:40;;;;;;;1999.90;999.90;;;;;;;15.91;57.59;101815.63;15681854;28;20037;-64
2021/06/03 04:31:14;;;;;;;1999.90;999.90;;;;;;;16.04;57.67;101803.25;15661569;28;20208;-64
2021/06/03 04:38:47;;;;;;;1999.90;999.90;;;;;;;16.21;57.42;101822.00;15665359;28;20226;-64
2021/06/03 04:46:20;;;;;;;1999.90;999.90;;;;;;;16.80;56.25;101822.59;15681908;28;20079;-64
2021/06/03 04:54:08;;;;;;;1999.90;999.90;;;;;;;17.01;55.37;101833.81;15682192;28;20135;-65
2021/06/03 05:01:41;;;;;;;1999.90;999.90;;;;;;;17.42;54.18;101832.78;15680580;28;20373;-65
2021/06/03 05:09:13;;;;;;;1999.90;999.90;;;;;;;17.72;53.70;101841.03;15680732;28;20528;-64
2021/06/03 05:16:46;;;;;;;1999.90;999.90;;;;;;;18.24;52.18;101837.38;15678544;28;20122;-64
2021/06/03 05:24:18;;;;;;;1999.90;999.90;;;;;;;18.68;50.32;101849.56;15670071;28;20481;-64
2021/06/03 05:31:52;;;;;;;1999.90;999.90;;;;;;;19.33;48.88;101852.94;15679078;28;20106;-64
2021/06/03 05:39:23;;;;;;;1999.90;999.90;;;;;;;19.71;48.18;101845.81;15677490;28;20048;-64
2021/06/03 05:46:56;;;;;;;1999.90;999.90;;;;;;;19.87;47.40;101850.22;15674698;28;20041;-64
2021/06/03 05:54:28;;;;;;;1999.90;999.90;;;;;;;20.22;46.46;101857.06;15676764;28;20045;-64
2021/06/03 06:02:04;;;;;;;1999.90;999.90;;;;;;;21.34;46.56;101868.22;15678073;28;20497;-61
2021/06/03 06:09:36;;;;;;;1999.90;999.90;;;;;;;21.55;46.96;101879.13;15677082;28;20033;-62
2021/06/03 06:17:10;;;;;;;1999.90;999.90;;;;;;;22.03;45.53;101879.50;15675748;28;20443;-62
2021/06/03 06:24:41;;;;;;;1999.90;999.90;;;;;;;21.86;43.94;101878.00;15676184;28;20056;-63
2021/06/03 06:32:14;;;;;;;1999.90;999.90;;;;;;;22.65;43.31;101897.00;15681006;28;20112;-63
2021/06/03 06:39:46;;;;;;;1999.90;999.90;;;;;;;23.13;41.00;101897.16;15680125;28;20072;-64
2021/06/03 06:47:19;;;;;;;1999.90;999.90;;;;;;;24.30;40.74;101908.72;15678541;28;20049;-63
2021/06/03 06:54:51;;;;;;;1999.90;999.90;;;;;;;24.27;40.58;101904.63;15692095;22;20075;-64
2021/06/03 07:02:24;;;;;;;1999.90;999.90;;;;;;;25.25;38.39;101890.34;15682181;28;20080;-64
2021/06/03 07:09:56;;;;;;;1999.90;999.90;;;;;;;24.72;39.15;101897.53;15680317;28;20044;-64
2021/06/03 07:17:29;;;;;;;1999.90;999.90;;;;;;;25.05;39.67;101887.06;15678514;28;20561;-64
2021/06/03 07:25:00;;;;;;;1999.90;999.90;;;;;;;25.61;38.51;101902.59;15678812;28;20041;-63
2021/06/03 07:32:33;;;;;;;1999.90;999.90;;;;;;;26.78;35.95;101901.53;15643684;28;20053;-64
2021/06/03 07:40:07;;;;;;;1999.90;999.90;;;;;;;27.20;35.68;101906.28;15659518;28;20056;-64
2021/06/03 07:47:41;;;;;;;1999.90;999.90;;;;;;;27.98;32.58;101907.69;15659680;28;20448;-65
2021/06/03 07:55:16;;;;;;;1999.90;999.90;;;;;;;26.81;34.73;101906.47;15659630;28;20053;-64
2021/06/03 08:02:49;;;;;;;1999.90;999.90;;;;;;;27.44;33.50;101913.03;15677506;28;20118;-64
2021/06/03 08:10:24;;;;;;;1999.90;999.90;;;;;;;28.45;33.24;101911.72;15659311;28;20037;-65
2021/06/03 08:17:57;;;;;;;1999.90;999.90;;;;;;;28.07;32.03;101904.31;15676689;28;20052;-64
2021/06/03 08:25:29;;;;;;;1999.90;999.90;;;;;;;28.02;32.89;101902.72;15676809;28;20106;-64
2021/06/03 08:33:03;;;;;;;1999.90;999.90;;;;;;;28.10;30.89;101909.19;15658141;28;20052;-64
2021/06/03 08:40:38;;;;;;;1999.90;999.90;;;;;;;28.08;29.32;101888.72;15642189;28;20083;-65
2021/06/03 08:48:12;;;;;;;1999.90;999.90;;;;;;;28.50;29.54;101903.88;15675843;28;20119;-64
2021/06/03 09:03:36;;;;;;;1999.90;999.90;;;;;;;29.51;28.74;101890.56;15687139;28;20509;-65
2021/06/03 09:11:10;;;;;;;1999.90;999.90;;;;;;;29.97;29.77;101894.66;15667845;28;20049;-65
2021/06/03 09:18:46;;;;;;;1999.90;999.90;;;;;;;29.14;28.40;101900.13;15668119;28;20620;-64
2021/06/03 09:26:19;;;;;;;1999.90;999.90;;;;;;;29.13;27.84;101907.94;15685033;28;20409;-65
2021/06/03 09:34:00;;;;;;;1999.90;999.90;;;;;;;30.16;30.41;101883.22;15667238;28;20041;-65
2021/06/03 09:41:34;;;;;;;1999.90;999.90;;;;;;;30.95;27.43;101891.03;15666753;28;20045;-65
2021/06/03 09:49:13;;;;;;;1999.90;999.90;;;;;;;30.28;26.91;101884.63;15650085;28;20041;-66
2021/06/03 09:56:46;;;;;;;1999.90;999.90;;;;;;;31.23;26.23;101874.34;15685651;28;20069;-65
2021/06/03 10:04:24;;;;;;;1999.90;999.90;;;;;;;30.77;26.07;101873.34;15691633;28;20037;-65
2021/06/03 10:11:55;;;;;;;1999.90;999.90;;;;;;;31.14;25.82;101868.34;15682084;28;20391;-65
2021/06/03 10:19:29;;;;;;;1999.90;999.90;;;;;;;31.06;25.93;101873.50;15685293;28;20494;-65
2021/06/03 10:27:00;;;;;;;1999.90;999.90;;;;;;;31.94;25.31;101863.88;15685514;28;20072;-66
2021/06/03 10:34:34;;;;;;;1999.90;999.90;;;;;;;31.54;25.41;101855.44;15664053;28;20041;-65
2021/06/03 10:42:07;;;;;;;1999.90;999.90;;;;;;;31.99;24.79;101851.75;15681779;28;20124;-65
2021/06/03 10:49:41;;;;;;;1999.90;999.90;;;;;;;32.11;24.17;101850.22;15663794;28;20071;-65
2021/06/03 10:57:14;;;;;;;1999.90;999.90;;;;;;;32.15;23.38;101845.97;15663173;28;20402;-65
2021/06/03 11:04:47;;;;;;;1999.90;999.90;;;;;;;33.16;25.71;101843.75;15680503;28;20128;-66
2021/06/03 11:12:22;;;;;;;1999.90;999.90;;;;;;;33.16;23.56;101846.63;15678793;28;20118;-65
2021/06/03 11:20:04;;;;;;;1999.90;999.90;;;;;;;33.15;24.60;101825.59;15660684;28;20071;-66
2021/06/03 11:27:39;;;;;;;1999.90;999.90;;;;;;;33.40;23.78;101830.56;15678480;28;20049;-64
2021/06/03 11:35:14;;;;;;;1999.90;999.90;;;;;;;33.74;22.18;101828.94;15678400;28;20048;-65
2021/06/03 11:42:47;;;;;;;1999.90;999.90;;;;;;;32.54;24.02;101838.25;15666214;28;20044;-64
2021/06/03 11:58:26;;;;;;;1999.90;999.90;;;;;;;33.59;21.90;101819.97;15948728;27;20612;-66
2021/06/03 12:05:59;;;;;;;1999.90;999.90;;;;;;;33.18;21.73;101820.97;15921504;27;20050;-65
2021/06/03 12:13:33;;;;;;;1999.90;999.90;;;;;;;35.79;20.27;101819.13;15921451;27;20040;-66
2021/06/03 12:21:08;;;;;;;1999.90;999.90;;;;;;;33.86;21.90;101813.63;15919126;28;20042;-65
2021/06/03 12:28:42;;;;;;;1999.90;999.90;;;;;;;35.30;21.51;101807.56;15912323;28;20051;-65
2021/06/03 12:36:17;;;;;;;1999.90;999.90;;;;;;;35.74;20.14;101808.13;15923913;27;20054;-66
2021/06/03 12:43:52;;;;;;;1999.90;999.90;;;;;;;39.52;16.96;101800.78;15920789;27;20039;-65
2021/06/03 12:51:24;;;;;;;1999.90;999.90;;;;;;;37.54;17.76;101788.25;15921431;27;20039;-65
2021/06/03 12:58:56;;;;;;;1999.90;999.90;;;;;;;40.73;14.53;101786.41;15691097;22;20084;-63
2021/06/03 13:06:28;;;;;;;1999.90;999.90;;;;;;;32.90;22.29;101774.38;15635294;28;20461;-63
2021/06/03 13:14:17;;;;;;;1999.90;999.90;;;;;;;32.22;25.08;101751.75;15617258;28;20497;-63
2021/06/03 13:21:53;;;;;;;1999.90;999.90;;;;;;;31.64;25.76;101740.22;15617035;28;20049;-63
2021/06/03 13:29:27;;;;;;;1999.90;999.90;;;;;;;31.08;24.91;101747.03;15617062;28;20494;-63
2021/06/03 13:37:05;;;;;;;1999.90;999.90;;;;;;;30.96;25.98;101745.69;15617387;28;20125;-62
2021/06/03 13:44:57;;;;;;;1999.90;999.90;;;;;;;30.94;27.25;101727.22;15617180;28;20359;-63
2021/06/03 13:52:42;;;;;;;1999.90;999.90;;;;;;;30.53;26.63;101724.91;15616684;28;20136;-62
2021/06/03 14:00:41;;;;;;;1999.90;999.90;;;;;;;31.02;24.88;101717.94;15614399;28;20106;-63
2021/06/03 14:08:15;;;;;;;1999.90;999.90;;;;;;;30.13;25.66;101711.44;15599934;28;20058;-62
2021/06/03 14:15:48;;;;;;;1999.90;999.90;;;;;;;31.17;26.27;101723.34;15614803;28;20056;-62
2021/06/03 14:23:20;;;;;;;1999.90;999.90;;;;;;;30.24;26.48;101714.06;15613626;28;20049;-63
2021/06/03 14:30:53;;;;;;;1999.90;999.90;;;;;;;29.55;27.25;101701.53;15614518;28;20431;-62
2021/06/03 14:38:24;;;;;;;1999.90;999.90;;;;;;;30.07;27.39;101721.81;15613040;28;20506;-63
2021/06/03 14:46:03;;;;;;;1999.90;999.90;;;;;;;29.63;26.27;101708.75;15612655;28;20057;-62
2021/06/03 14:53:36;;;;;;;1999.90;999.90;;;;;;;29.63;27.23;101697.25;15613138;28;20119;-62
2021/06/03 15:01:10;;;;;;;1999.90;999.90;;;;;;;29.54;26.97;101689.22;15613248;28;20148;-62
2021/06/03 15:08:42;;;;;;;1999.90;999.90;;;;;;;29.48;28.28;101690.97;15611900;28;20052;-62
2021/06/03 15:16:15;;;;;;;1999.90;999.90;;;;;;;29.68;27.58;101684.41;15610926;28;20053;-63
2021/06/03 15:23:46;;;;;;;1999.90;999.90;;;;;;;29.24;26.97;101672.91;15611209;28;20049;-62
2021/06/03 15:31:19;;;;;;;1999.90;999.90;;;;;;;29.45;27.19;101685.25;15610019;28;20111;-62
2021/06/03 15:38:52;;;;;;;1999.90;999.90;;;;;;;29.26;28.06;101663.84;15610796;28;20073;-62
2021/06/03 15:46:27;;;;;;;1999.90;999.90;;;;;;;29.08;27.30;101658.47;15610218;28;20045;-62
2021/06/03 15:53:58;;;;;;;1999.90;999.90;;;;;;;29.20;29.31;101657.00;15608558;28;20065;-62
2021/06/03 16:01:32;;;;;;;1999.90;999.90;;;;;;;29.16;29.82;101654.19;15605403;28;20394;-61
2021/06/03 16:09:04;;;;;;;1999.90;999.90;;;;;;;28.93;28.55;101654.22;15608803;28;20061;-62
2021/06/03 16:16:37;;;;;;;;;;;;;;;28.90;28.88;101660.84;15608725;28;20037;-62
2021/06/03 16:24:09;;;;;;;1999.90;999.90;;;;;;;28.61;29.91;101654.75;15609170;28;20004;-61
2021/06/03 16:31:42;;;;;;;1999.90;999.90;;;;;;;28.53;29.25;101654.03;15596696;28;20050;-60
2021/06/03 16:39:15;;;;;;;1999.90;999.90;;;;;;;28.30;29.74;101640.47;15605333;28;20041;-61
2021/06/03 16:46:48;;;;;;;1999.90;999.90;;;;;;;28.23;30.01;101640.53;15609119;28;20048;-61
2021/06/03 16:54:19;;;;;;;1999.90;999.90;;;;;;;28.51;29.41;101638.50;15592106;28;20041;-62
2021/06/03 17:01:55;;;;;;;1999.90;999.90;;;;;;;28.18;30.75;101643.91;15610352;28;20049;-62
2021/06/03 17:09:27;;;;;;;1999.90;999.90;;;;;;;28.14;30.19;101646.03;15608005;28;20122;-62
2021/06/03 17:17:00;;;;;;;1999.90;999.90;;;;;;;27.98;30.79;101649.50;15609671;28;20120;-61
2021/06/03 17:24:32;;;;;;;1999.90;999.90;;;;;;;27.90;29.95;101647.97;15613822;28;20041;-62
2021/06/03 17:32:07;;;;;;;1999.90;999.90;;;;;;;27.96;30.54;101660.63;15600425;28;20068;-62
2021/06/03 17:39:38;;;;;;;1999.90;999.90;;;;;;;27.53;31.14;101660.31;15617296;28;20045;-62
2021/06/03 17:47:12;;;;;;;1999.90;999.90;;;;;;;27.53;31.46;101657.47;15616574;28;20529;-62
2021/06/03 17:54:45;;;;;;;1999.90;999.90;;;;;;;27.24;31.85;101666.38;15626149;28;20482;-60
2021/06/03 18:02:18;;;;;;;1999.90;999.90;;;;;;;27.06;32.02;101670.66;15616168;28;20037;-63
2021/06/03 18:09:50;;;;;;;1999.90;999.90;;;;;;;26.54;32.96;101671.47;15615283;28;20045;-64
2021/06/03 18:17:23;;;;;;;1999.90;999.90;;;;;;;26.52;33.50;101673.13;15570042;28;20045;-63
2021/06/03 18:24:56;;;;;;;1999.90;999.90;;;;;;;26.22;33.91;101663.06;15572846;28;20075;-63
2021/06/03 18:32:29;;;;;;;1999.90;999.90;;;;;;;25.99;34.87;101669.34;15613513;28;20258;-63
2021/06/03 18:40:01;;;;;;;1999.90;999.90;;;;;;;25.69;34.88;101669.03;15613568;28;20332;-63
2021/06/03 18:47:35;;;;;;;1999.90;999.90;;;;;;;25.58;35.40;101680.53;15623479;28;20600;-63
2021/06/03 18:55:09;;;;;;;1999.90;999.90;;;;;;;25.22;36.09;101674.91;15631173;22;20073;-64
2021/06/03 19:02:43;;;;;;;1999.90;999.90;;;;;;;25.07;36.81;101678.19;15629528;28;20057;-63
2021/06/03 19:10:18;;;;;;;1999.90;999.90;;;;;;;25.00;36.70;101684.69;15587138;28;20076;-63
2021/06/03 19:17:53;;;;;;;1999.90;999.90;;;;;;;24.72;37.25;101691.22;15559707;28;20106;-64
2021/06/03 19:25:25;;;;;;;1999.90;999.90;;;;;;;24.36;38.31;101690.34;15552809;28;20080;-61
2021/06/03 19:32:58;;;;;;;1999.90;999.90;;;;;;;24.19;40.48;101698.47;15554999;28;20095;-64
2021/06/03 19:40:32;;;;;;;1999.90;999.90;;;;;;;23.85;39.89;101706.47;15593302;28;20042;-64
2021/06/03 19:48:06;;;;;;;1999.90;999.90;;;;;;;23.60;39.47;101689.25;15582866;28;20045;-63
2021/06/03 19:55:38;;;;;;;1999.90;999.90;;;;;;;23.45;40.60;101703.81;15568767;28;20285;-63
2021/06/03 20:03:11;;;;;;;1999.90;999.90;;;;;;;23.53;40.04;101714.81;15530587;28;20038;-63
2021/06/03 20:10:45;;;;;;;1999.90;999.90;;;;;;;23.37;39.84;101702.94;15548756;28;20061;-61
2021/06/03 20:18:20;;;;;;;1999.90;999.90;;;;;;;23.26;41.27;101702.88;15558002;28;20133;-63
2021/06/03 20:25:52;;;;;;;1999.90;999.90;;;;;;;22.86;40.90;101711.50;15559560;28;20068;-62
2021/06/03 20:33:28;;;;;;;1999.90;999.90;;;;;;;22.91;41.28;101714.78;15553247;28;20042;-63
2021/06/03 20:41:00;;;;;;;1999.90;999.90;;;;;;;22.83;41.21;101698.84;15530384;28;20045;-61
2021/06/03 20:48:34;;;;;;;1999.90;999.90;;;;;;;22.86;41.03;101717.19;15561424;28;20121;-63
2021/06/03 20:56:05;;;;;;;1999.90;999.90;;;;;;;22.89;41.05;101722.09;15557079;28;20050;-62
2021/06/03 21:03:38;;;;;;;1999.90;999.90;;;;;;;22.55;41.40;101718.50;15559062;28;20046;-62
2021/06/03 21:11:18;;;;;;;1999.90;999.90;;;;;;;22.37;42.05;101724.00;15539812;28;20046;-63
2021/06/03 21:18:51;;;;;;;1999.90;999.90;;;;;;;22.18;42.47;101728.66;15537583;28;20557;-63
2021/06/03 21:26:23;;;;;;;1999.90;999.90;;;;;;;22.22;42.15;101725.06;15537856;28;20380;-62
2021/06/03 21:33:56;;;;;;;1999.90;999.90;;;;;;;22.10;42.58;101731.84;15556061;28;20097;-62
2021/06/03 21:41:27;;;;;;;;;;;;;;;21.99;42.56;101733.66;15556833;28;20041;-63
2021/06/03 21:49:00;;;;;;;1999.90;999.90;;;;;;;22.12;42.31;101737.94;15537920;28;20267;-63
2021/06/03 21:56:32;;;;;;;;;;;;;;;22.22;42.53;101736.44;15537698;28;20390;-60
2021/06/03 22:04:10;;;;;;;1999.90;999.90;;;;;;;21.76;43.57;101737.44;15536939;28;19967;-61
2021/06/03 22:11:42;;;;;;;1999.90;999.90;;;;;;;21.79;43.42;101738.72;15555560;28;20057;-62
2021/06/03 22:19:18;;;;;;;1999.90;999.90;;;;;;;21.47;44.38;101739.06;15538008;28;20033;-62
2021/06/03 22:26:50;;;;;;;1999.90;999.90;;;;;;;21.57;44.21;101738.41;15557927;28;20513;-62
2021/06/03 22:34:23;;;;;;;1999.90;999.90;;;;;;;21.47;43.96;101732.59;15535637;28;20064;-62
2021/06/03 22:41:55;;;;;;;;;;;;;;;21.53;44.10;101734.69;15518741;28;20519;-64
2021/06/03 22:49:30;;;;;;;1999.90;999.90;;;;;;;21.15;44.88;101749.06;15552105;28;20024;-62
2021/06/03 22:57:03;;;;;;;1999.90;999.90;;;;;;;20.99;45.22;101735.84;15551652;28;20042;-63
2021/06/03 23:04:36;;;;;;;;;;;;;;;21.02;45.18;101734.25;15550586;28;20519;-64
2021/06/03 23:12:08;;;;;;;1999.90;999.90;;;;;;;21.08;45.05;101727.09;15531771;28;19925;-61
2021/06/03 23:19:42;;;;;;;1999.90;999.90;;;;;;;21.07;45.21;101733.97;15549153;28;20222;-60
2021/06/03 23:27:13;;;;;;;;;;;;;;;21.04;45.31;101729.84;15549994;28;20056;-61
2021/06/03 23:34:46;;;;;;;1999.90;999.90;;;;;;;20.95;44.76;101717.97;15549626;28;19922;-61
2021/06/03 23:42:18;;;;;;;1999.90;999.90;;;;;;;20.89;45.50;101708.13;15548498;28;20053;-62
2021/06/03 23:49:52;;;;;;;1999.90;999.90;;;;;;;20.82;45.54;101715.69;15548959;28;20046;-61
2021/06/03 23:57:24;;;;;;;1999.90;999.90;;;;;;;20.77;45.62;101711.16;15530329;28;20057;-62
